Rosecrans Memorial Airport St Joseph US
ICAO: KSTJ
IATA: STJ
Category: Medium
Scheduled Services: No

Elevation: 826 ft
TransAlt. 18000 ft.

Airport Communications:
ST JOSEPH APP/DEP:120.35
ATIS:125.05
CTAF:126.9
GND:121.9
ANG COMD POST:34.94
ST JOSEPH TWR:126.9
UNICOM:122.95

KSTJ Zoom In..

Runways:

(A) RW 13 length 4797 ft width 75 ft
---- / hdg 132

(B) RW 17 length 8061 ft width 150 ft
---- / hdg 176

(C) RW 31 length 4797 ft width 75 ft
---- / hdg 312

(D) RW 35 length 8061 ft width 150 ft
ILS 110.30 / hdg 356

Location; KSTJ
Day. 27 / Time. 07.53 Zulu
* Altimeter: 30.11
* Temperature: 04° c. 39.2°f.
* Wind from: 350° Speed 08 kn.
Dewpoint: 02° c.
Visibility: 8 Statute Miles.
Clouds: Overcast 8000 ft.

KSTJ 270753Z AUTO 35008KT 8SM OVC080 04/02 A3011 RMK AO2 SLP200 T00390017

Going to: --> -->


Wind From 350°
Speed 08 kn.

 
 
jpsmedia worldairports.se 2020   terms of use